createdAt,value
2023-04-22T00:00:14.448Z,40.17
2023-04-22T00:02:41.566Z,39.90
2023-04-22T00:05:09.252Z,40.43
2023-04-22T00:07:36.135Z,49.73
2023-04-22T00:10:02.929Z,47.60
2023-04-22T00:12:29.750Z,44.10
2023-04-22T00:14:56.592Z,42.90
2023-04-22T00:17:23.588Z,50.80
2023-04-22T00:19:50.365Z,54.07
2023-04-22T00:22:17.169Z,49.77
2023-04-22T00:24:43.906Z,45.57
2023-04-22T00:27:10.852Z,45.27
2023-04-22T00:29:38.411Z,57.40
2023-04-22T00:32:05.893Z,53.73
2023-04-22T00:34:32.604Z,65.00
2023-04-22T00:36:59.392Z,66.67
2023-04-22T00:39:26.250Z,69.67
2023-04-22T00:41:53.547Z,73.97
2023-04-22T00:44:20.629Z,83.00
2023-04-22T00:46:47.566Z,73.83
2023-04-22T00:49:15.060Z,197.00
2023-04-22T00:51:41.821Z,117.33
2023-04-22T00:54:08.634Z,87.10
2023-04-22T00:56:38.167Z,139.67
2023-04-22T00:59:04.993Z,345.63
2023-04-22T01:01:32.759Z,98.10
2023-04-22T01:04:00.994Z,102.50
2023-04-22T01:06:31.438Z,156.07
2023-04-22T01:08:59.100Z,160.43
2023-04-22T01:11:25.963Z,81.77
2023-04-22T01:13:53.211Z,92.63
2023-04-22T01:16:20.689Z,393.77
2023-04-22T01:18:47.594Z,217.70
2023-04-22T01:21:14.851Z,140.70
2023-04-22T01:23:41.784Z,83.47
2023-04-22T01:26:09.565Z,193.07
2023-04-22T01:28:36.573Z,137.63
2023-04-22T01:31:03.889Z,144.77
2023-04-22T01:33:31.044Z,169.50
2023-04-22T01:35:57.893Z,111.13
2023-04-22T01:38:24.903Z,120.47
2023-04-22T01:40:51.943Z,156.53
2023-04-22T01:43:19.364Z,181.37
2023-04-22T01:45:46.786Z,135.17
2023-04-22T01:48:13.615Z,145.50
2023-04-22T01:50:40.374Z,185.30
2023-04-22T01:53:08.709Z,96.63
2023-04-22T01:55:36.290Z,87.93
2023-04-22T01:58:04.588Z,106.50
2023-04-22T02:00:31.956Z,112.97
2023-04-22T02:02:58.762Z,114.90
2023-04-22T02:05:26.489Z,120.40
2023-04-22T02:07:54.104Z,126.43
2023-04-22T02:10:21.500Z,80.03
2023-04-22T02:12:48.241Z,154.90
2023-04-22T02:15:15.297Z,223.07
2023-04-22T02:17:43.373Z,115.20
2023-04-22T02:20:11.513Z,107.33
2023-04-22T02:22:39.261Z,68.53
2023-04-22T02:25:06.627Z,72.67
2023-04-22T02:27:33.358Z,215.23
2023-04-22T02:30:00.590Z,87.83
2023-04-22T02:32:27.438Z,178.37
2023-04-22T02:34:54.243Z,115.03
2023-04-22T02:37:22.847Z,88.80
2023-04-22T02:39:49.932Z,178.57
2023-04-22T02:42:16.712Z,107.43
2023-04-22T02:44:43.507Z,83.07
2023-04-22T02:47:10.357Z,90.07
2023-04-22T02:49:37.343Z,85.40
2023-04-22T02:52:05.113Z,78.10
2023-04-22T02:54:31.817Z,81.97
2023-04-22T02:56:58.809Z,73.03
2023-04-22T02:59:25.572Z,62.53
2023-04-22T03:01:52.303Z,70.77
2023-04-22T03:04:21.987Z,63.63
2023-04-22T03:06:52.448Z,70.83
2023-04-22T03:09:19.214Z,62.27
2023-04-22T03:11:46.316Z,66.10
2023-04-22T03:14:13.153Z,59.63
2023-04-22T03:16:40.041Z,58.13
2023-04-22T03:19:06.913Z,64.33
2023-04-22T03:21:33.691Z,63.00
2023-04-22T03:24:00.541Z,60.23
2023-04-22T03:26:27.449Z,62.03
2023-04-22T03:28:54.576Z,60.27
2023-04-22T03:31:21.608Z,58.83
2023-04-22T03:33:48.496Z,55.60
2023-04-22T03:36:15.731Z,55.00
2023-04-22T03:38:42.519Z,60.80
2023-04-22T03:41:09.637Z,61.40
2023-04-22T03:43:36.454Z,54.00
2023-04-22T03:46:03.289Z,59.97
2023-04-22T03:48:34.984Z,56.57
2023-04-22T03:51:02.667Z,62.33
2023-04-22T03:53:29.456Z,59.40
2023-04-22T03:55:56.193Z,57.13
2023-04-22T03:58:22.921Z,60.10
2023-04-22T04:00:49.746Z,57.70
2023-04-22T04:03:16.707Z,60.90
2023-04-22T04:05:44.104Z,59.40
2023-04-22T04:08:11.308Z,67.63
2023-04-22T04:10:38.298Z,62.23
2023-04-22T04:13:05.115Z,63.73
2023-04-22T04:15:32.804Z,65.33
2023-04-22T04:18:01.419Z,66.53
2023-04-22T04:20:28.664Z,62.93
2023-04-22T04:22:56.296Z,59.20
2023-04-22T04:25:23.389Z,62.90
2023-04-22T04:27:51.875Z,56.63
2023-04-22T04:30:19.670Z,54.30
2023-04-22T04:32:46.456Z,54.47
2023-04-22T04:35:14.226Z,60.93
2023-04-22T04:37:43.497Z,57.47
2023-04-22T04:40:12.245Z,58.77
2023-04-22T04:42:39.084Z,61.20
2023-04-22T04:45:06.519Z,54.80
2023-04-22T04:47:34.078Z,56.60
2023-04-22T04:50:01.754Z,53.03
2023-04-22T04:52:28.460Z,59.93
2023-04-22T04:54:55.331Z,59.60
2023-04-22T04:57:22.108Z,63.87
2023-04-22T04:59:48.870Z,69.80
2023-04-22T05:02:15.770Z,61.73
2023-04-22T05:04:42.676Z,58.53
2023-04-22T05:07:09.539Z,62.60
2023-04-22T05:09:37.781Z,67.00
2023-04-22T05:12:05.150Z,64.10
2023-04-22T05:14:32.074Z,64.80
2023-04-22T05:16:58.933Z,62.00
2023-04-22T05:19:25.727Z,61.53
2023-04-22T05:21:52.466Z,58.27
2023-04-22T05:24:19.258Z,61.50
2023-04-22T05:26:45.997Z,64.70
2023-04-22T05:29:12.750Z,66.00
2023-04-22T05:31:39.722Z,63.47
2023-04-22T05:34:06.666Z,63.10
2023-04-22T05:36:33.411Z,55.97
2023-04-22T05:39:00.453Z,61.87
2023-04-22T05:41:27.251Z,63.07
2023-04-22T05:43:54.083Z,60.13
2023-04-22T05:46:21.097Z,59.67
2023-04-22T05:48:48.856Z,54.73
2023-04-22T05:51:15.731Z,55.33
2023-04-22T05:53:42.558Z,62.50
2023-04-22T05:56:09.348Z,62.83
2023-04-22T05:58:36.110Z,61.87
2023-04-22T06:01:02.921Z,58.73
2023-04-22T06:03:30.321Z,51.43
2023-04-22T06:05:57.975Z,49.70
2023-04-22T06:08:25.010Z,51.10
2023-04-22T06:10:51.956Z,46.77
2023-04-22T06:13:18.768Z,49.20
2023-04-22T06:15:45.548Z,51.33
2023-04-22T06:18:12.435Z,53.27
2023-04-22T06:20:39.527Z,49.33
2023-04-22T06:23:06.286Z,48.10
2023-04-22T06:25:33.568Z,49.70
2023-04-22T06:28:00.317Z,48.53
2023-04-22T06:30:27.908Z,46.97
2023-04-22T06:32:55.378Z,50.80
2023-04-22T06:35:22.392Z,48.80
2023-04-22T06:37:49.110Z,46.63
2023-04-22T06:40:15.980Z,47.93
2023-04-22T06:42:42.789Z,48.40
2023-04-22T06:45:12.749Z,42.30
2023-04-22T06:47:40.280Z,45.53
2023-04-22T06:50:10.905Z,46.37
2023-04-22T06:52:37.699Z,46.63
2023-04-22T06:55:05.123Z,47.33
2023-04-22T06:57:32.091Z,43.83
2023-04-22T06:59:58.902Z,41.33
2023-04-22T07:02:25.781Z,43.67
2023-04-22T07:04:52.691Z,48.10
2023-04-22T07:07:19.487Z,47.73
2023-04-22T07:09:46.305Z,43.60
2023-04-22T07:12:13.178Z,44.60
2023-04-22T07:14:46.709Z,43.23
2023-04-22T07:17:13.652Z,42.70
2023-04-22T07:19:40.913Z,41.97
2023-04-22T07:22:08.586Z,41.67
2023-04-22T07:24:35.390Z,43.77
2023-04-22T07:27:02.625Z,42.33
2023-04-22T07:29:29.386Z,43.63
2023-04-22T07:31:56.186Z,43.03
2023-04-22T07:34:23.054Z,39.80
2023-04-22T07:36:52.282Z,44.80
2023-04-22T07:39:19.210Z,45.93
2023-04-22T07:41:45.986Z,46.87
2023-04-22T07:44:16.480Z,41.30
2023-04-22T07:46:43.704Z,41.57
2023-04-22T07:49:10.564Z,41.13
2023-04-22T07:51:37.312Z,41.67
2023-04-22T07:54:04.135Z,43.17
2023-04-22T07:56:31.068Z,42.10
2023-04-22T07:58:57.803Z,42.17
2023-04-22T08:01:24.617Z,41.43
2023-04-22T08:03:51.637Z,37.27
2023-04-22T08:06:19.051Z,39.90
2023-04-22T08:08:46.106Z,41.97
2023-04-22T08:11:12.886Z,42.03
2023-04-22T08:13:39.686Z,41.87
2023-04-22T08:16:07.615Z,39.07
2023-04-22T08:18:35.143Z,37.80
2023-04-22T08:21:02.104Z,40.73
2023-04-22T08:23:29.002Z,39.03
2023-04-22T08:25:55.798Z,41.07
2023-04-22T08:28:22.790Z,38.40
2023-04-22T08:30:49.959Z,39.03
2023-04-22T08:33:17.530Z,36.33
2023-04-22T08:35:44.343Z,37.57
2023-04-22T08:38:11.116Z,39.03
2023-04-22T08:40:42.018Z,37.40
2023-04-22T08:43:09.696Z,38.57
2023-04-22T08:45:39.721Z,37.67
2023-04-22T08:48:09.068Z,40.30
2023-04-22T08:50:38.296Z,39.10
2023-04-22T08:53:05.102Z,38.27
2023-04-22T08:55:32.436Z,38.27
2023-04-22T08:58:01.745Z,43.97
2023-04-22T09:00:28.601Z,38.77
2023-04-22T09:02:57.369Z,39.90
2023-04-22T09:05:27.846Z,40.23
2023-04-22T09:07:55.275Z,36.73
2023-04-22T09:10:22.100Z,38.67
2023-04-22T09:12:49.459Z,39.73
2023-04-22T09:15:16.644Z,36.43
2023-04-22T09:17:43.815Z,35.50
2023-04-22T09:20:12.234Z,34.80
2023-04-22T09:22:41.765Z,36.47
2023-04-22T09:25:28.957Z,40.90
2023-04-22T09:27:59.990Z,35.97
2023-04-22T09:30:31.723Z,34.77
2023-04-22T09:33:00.455Z,34.03
2023-04-22T09:35:39.913Z,34.13
2023-04-22T09:38:09.030Z,37.00
2023-04-22T09:40:38.113Z,38.87
2023-04-22T09:43:07.523Z,31.67
2023-04-22T09:45:36.407Z,35.20
2023-04-22T09:48:18.205Z,35.50
2023-04-22T09:50:49.601Z,34.90
2023-04-22T09:53:32.967Z,35.07
2023-04-22T09:56:00.032Z,36.27
2023-04-22T09:58:27.978Z,37.50
2023-04-22T10:00:57.870Z,34.17
2023-04-22T10:03:25.002Z,32.93
2023-04-22T10:05:52.339Z,33.13
2023-04-22T10:08:19.231Z,34.63
2023-04-22T10:10:46.305Z,32.57
2023-04-22T10:13:13.183Z,35.10
2023-04-22T10:15:48.504Z,34.63
2023-04-22T10:18:39.251Z,33.97
2023-04-22T10:21:07.074Z,35.20
2023-04-22T10:23:34.055Z,32.63
2023-04-22T10:26:01.062Z,33.10
2023-04-22T10:28:31.798Z,31.67
2023-04-22T10:30:58.541Z,35.57
2023-04-22T10:33:27.727Z,33.67
2023-04-22T10:36:14.462Z,33.73
2023-04-22T10:39:02.093Z,33.33
2023-04-22T10:41:35.726Z,33.43
2023-04-22T10:44:06.972Z,34.00
2023-04-22T10:46:45.470Z,30.90
2023-04-22T10:49:24.235Z,29.97
2023-04-22T10:51:55.808Z,30.30
2023-04-22T10:54:31.447Z,29.30
2023-04-22T10:57:19.291Z,31.37
2023-04-22T10:59:54.370Z,31.77
2023-04-22T11:02:22.847Z,29.20
2023-04-22T11:04:50.966Z,29.70
2023-04-22T11:07:22.768Z,29.43
2023-04-22T11:10:07.816Z,29.57
2023-04-22T11:12:41.810Z,27.17
2023-04-22T11:15:14.558Z,28.77
2023-04-22T11:17:47.510Z,23.10
2023-04-22T11:20:18.278Z,24.23
2023-04-22T11:22:48.365Z,24.53
2023-04-22T11:25:15.446Z,24.37
2023-04-22T11:27:43.776Z,22.27
2023-04-22T11:30:17.574Z,21.53
2023-04-22T11:32:47.104Z,22.90
2023-04-22T11:35:19.776Z,20.10
2023-04-22T11:38:08.672Z,19.83
2023-04-22T11:40:39.937Z,21.97
2023-04-22T11:43:09.781Z,19.00
2023-04-22T11:45:38.102Z,19.97
2023-04-22T11:48:09.936Z,21.93
2023-04-22T11:50:39.363Z,21.27
2023-04-22T11:53:15.238Z,21.53
2023-04-22T11:55:42.851Z,20.30
2023-04-22T11:58:10.846Z,21.27
2023-04-22T12:00:41.901Z,21.70
2023-04-22T12:03:17.160Z,22.47
2023-04-22T12:05:49.982Z,22.63
2023-04-22T12:08:26.216Z,23.40
2023-04-22T12:10:58.699Z,26.80
2023-04-22T12:13:30.168Z,24.13
2023-04-22T12:16:02.330Z,24.17
2023-04-22T12:18:32.912Z,24.07
2023-04-22T12:21:10.235Z,24.67
2023-04-22T12:23:50.426Z,23.17
2023-04-22T12:26:19.192Z,23.00
2023-04-22T12:28:46.648Z,22.50
2023-04-22T12:31:15.065Z,23.43
2023-04-22T12:33:42.721Z,21.50
2023-04-22T12:36:10.304Z,21.27
2023-04-22T12:38:38.047Z,21.00
2023-04-22T12:41:06.407Z,22.47
2023-04-22T12:43:36.647Z,23.67
2023-04-22T12:46:04.382Z,24.40
2023-04-22T12:48:31.756Z,23.60
2023-04-22T12:50:59.200Z,21.67
2023-04-22T12:53:27.965Z,19.67
2023-04-22T12:55:55.506Z,20.10
2023-04-22T12:58:22.381Z,21.73
2023-04-22T13:00:49.150Z,21.73
2023-04-22T13:03:16.480Z,21.87
2023-04-22T13:05:45.334Z,20.97
2023-04-22T13:08:12.227Z,20.37
2023-04-22T13:10:39.050Z,19.17
2023-04-22T13:15:38.798Z,22.80
2023-04-22T13:18:05.859Z,20.63
2023-04-22T13:20:32.641Z,20.30
2023-04-22T13:22:59.384Z,20.00
2023-04-22T13:25:26.166Z,18.53
2023-04-22T13:27:52.909Z,19.10
2023-04-22T13:30:20.161Z,19.33
2023-04-22T13:32:47.082Z,21.13
2023-04-22T13:35:13.838Z,20.23
2023-04-22T13:37:40.718Z,21.23
2023-04-22T13:40:08.625Z,17.50
2023-04-22T13:42:35.538Z,16.63
2023-04-22T13:45:02.268Z,17.77
2023-04-22T13:47:29.483Z,16.97
2023-04-22T13:49:57.755Z,17.43
2023-04-22T13:52:24.721Z,15.87
2023-04-22T13:54:51.613Z,16.07
2023-04-22T13:57:18.679Z,16.27
2023-04-22T13:59:45.388Z,14.60
2023-04-22T14:02:12.165Z,14.03
2023-04-22T14:04:38.961Z,13.87
2023-04-22T14:07:05.850Z,13.00
2023-04-22T14:09:32.661Z,12.87
2023-04-22T14:11:59.437Z,10.93
2023-04-22T14:14:26.225Z,8.97
2023-04-22T14:16:53.005Z,9.27
2023-04-22T14:19:20.199Z,11.40
2023-04-22T14:21:47.353Z,12.03
2023-04-22T14:24:14.419Z,10.93
2023-04-22T14:26:41.361Z,12.10
2023-04-22T14:29:08.805Z,13.77
2023-04-22T14:31:35.786Z,13.33
2023-04-22T14:34:02.765Z,9.80
2023-04-22T14:36:29.969Z,10.80
2023-04-22T14:38:56.674Z,10.73
2023-04-22T14:41:23.869Z,10.50
2023-04-22T14:43:50.630Z,12.20
2023-04-22T14:46:17.364Z,11.27
2023-04-22T14:48:44.806Z,11.57
2023-04-22T14:51:11.821Z,12.13
2023-04-22T14:53:38.967Z,14.13
2023-04-22T14:56:05.721Z,15.20
2023-04-22T14:58:32.619Z,15.57
2023-04-22T15:00:59.948Z,16.10
2023-04-22T15:03:27.021Z,16.67
2023-04-22T15:05:55.270Z,14.70
2023-04-22T15:08:22.606Z,16.53
2023-04-22T15:10:49.432Z,15.63
2023-04-22T15:13:16.240Z,17.17
2023-04-22T15:15:43.185Z,17.90
2023-04-22T15:18:12.559Z,18.07
2023-04-22T15:20:39.352Z,18.70
2023-04-22T15:23:06.050Z,18.33
2023-04-22T15:25:33.186Z,18.13
2023-04-22T15:27:59.983Z,18.83
2023-04-22T15:30:26.829Z,17.53
2023-04-22T15:32:53.735Z,17.20
2023-04-22T15:35:21.587Z,17.00
2023-04-22T15:37:48.371Z,18.43
2023-04-22T15:40:15.368Z,16.57
2023-04-22T15:42:42.326Z,18.17
2023-04-22T15:45:09.439Z,20.90
2023-04-22T15:47:37.790Z,18.30
2023-04-22T15:50:09.060Z,18.13
2023-04-22T15:52:37.703Z,16.83
2023-04-22T15:55:06.137Z,18.53
2023-04-22T15:57:34.995Z,19.13
2023-04-22T16:00:13.901Z,18.53
2023-04-22T16:02:42.986Z,18.40
2023-04-22T16:05:11.759Z,17.90
2023-04-22T16:07:39.524Z,18.63
2023-04-22T16:10:07.204Z,18.27
2023-04-22T16:12:34.527Z,18.23
2023-04-22T16:15:01.958Z,18.30
2023-04-22T16:17:29.023Z,17.03
2023-04-22T16:19:55.939Z,18.13
2023-04-22T16:22:22.800Z,18.27
2023-04-22T16:24:49.520Z,18.85
2023-04-22T16:27:18.118Z,17.37
2023-04-22T16:29:45.328Z,15.13
2023-04-22T16:32:12.364Z,13.40
2023-04-22T16:34:39.263Z,13.00
2023-04-22T16:37:06.516Z,12.23
2023-04-22T16:39:34.011Z,13.07
2023-04-22T16:42:02.301Z,13.07
2023-04-22T16:44:29.299Z,13.17
2023-04-22T16:46:56.172Z,12.83
2023-04-22T16:49:23.176Z,12.23
2023-04-22T16:51:49.954Z,12.07
2023-04-22T16:54:16.803Z,11.10
2023-04-22T16:56:43.543Z,12.00
2023-04-22T16:59:10.456Z,11.60
2023-04-22T17:01:37.421Z,10.87
2023-04-22T17:04:04.362Z,12.00
2023-04-22T17:06:32.429Z,11.97
2023-04-22T17:08:59.919Z,11.40
2023-04-22T17:11:26.759Z,11.30
2023-04-22T17:13:53.716Z,12.27
2023-04-22T17:16:21.010Z,11.93
2023-04-22T17:18:47.933Z,11.53
2023-04-22T17:21:16.383Z,11.77
2023-04-22T17:23:43.270Z,11.17
2023-04-22T17:26:10.039Z,12.43
2023-04-22T17:28:37.034Z,10.83
2023-04-22T17:31:04.198Z,10.93
2023-04-22T17:33:31.436Z,11.40
2023-04-22T17:35:58.294Z,11.13
2023-04-22T17:38:25.053Z,11.47
2023-04-22T17:40:51.938Z,10.90
2023-04-22T17:43:18.720Z,11.50
2023-04-22T17:45:45.582Z,11.50
2023-04-22T17:48:12.326Z,12.10
2023-04-22T17:50:39.129Z,11.30
2023-04-22T17:53:05.956Z,11.23
2023-04-22T17:55:35.243Z,12.20
2023-04-22T17:58:02.844Z,11.50
2023-04-22T18:00:30.747Z,12.07
2023-04-22T18:02:57.910Z,11.67
2023-04-22T18:05:27.047Z,12.70
2023-04-22T18:08:00.708Z,12.50
2023-04-22T18:10:27.989Z,12.13
2023-04-22T18:12:55.421Z,13.00
2023-04-22T18:15:23.516Z,13.00
2023-04-22T18:17:51.207Z,13.47
2023-04-22T18:20:19.597Z,13.17
2023-04-22T18:22:52.072Z,12.93
2023-04-22T18:25:18.977Z,13.70
2023-04-22T18:27:46.309Z,13.87
2023-04-22T18:30:13.585Z,15.50
2023-04-22T18:32:40.577Z,15.33
2023-04-22T18:35:08.140Z,14.53
2023-04-22T18:37:35.074Z,15.93
2023-04-22T18:40:02.694Z,15.17
2023-04-22T18:42:29.833Z,14.67
2023-04-22T18:44:56.808Z,15.13
2023-04-22T18:47:23.784Z,16.87
2023-04-22T18:49:53.108Z,15.50
2023-04-22T18:52:19.976Z,16.07
2023-04-22T18:54:46.906Z,14.83
2023-04-22T18:57:13.719Z,14.63
2023-04-22T18:59:40.997Z,15.40
2023-04-22T19:02:10.874Z,15.07
2023-04-22T19:04:38.024Z,14.87
2023-04-22T19:07:05.207Z,15.47
2023-04-22T19:09:32.342Z,15.13
2023-04-22T19:11:59.657Z,15.60
2023-04-22T19:14:26.639Z,15.73
2023-04-22T19:16:53.448Z,14.97
2023-04-22T19:19:20.168Z,15.87
2023-04-22T19:21:47.168Z,15.60
2023-04-22T19:24:14.403Z,15.63
2023-04-22T19:26:41.347Z,16.20
2023-04-22T19:29:08.779Z,16.13
2023-04-22T19:31:35.676Z,14.70
2023-04-22T19:34:03.103Z,15.93
2023-04-22T19:36:30.075Z,15.80
2023-04-22T19:38:56.856Z,15.93
2023-04-22T19:41:24.133Z,16.23
2023-04-22T19:43:51.249Z,15.63
2023-04-22T19:46:18.131Z,15.33
2023-04-22T19:48:45.201Z,16.43
2023-04-22T19:51:12.754Z,15.10
2023-04-22T19:53:41.147Z,15.20
2023-04-22T19:56:09.323Z,16.37
2023-04-22T19:58:36.582Z,16.33
2023-04-22T20:01:04.558Z,16.63
2023-04-22T20:03:31.602Z,16.83
2023-04-22T20:06:00.380Z,17.03
2023-04-22T20:08:30.814Z,18.13
2023-04-22T20:10:59.567Z,17.03
2023-04-22T20:13:26.890Z,18.07
2023-04-22T20:15:53.780Z,19.97
2023-04-22T20:18:20.771Z,18.53
2023-04-22T20:20:49.245Z,18.63
2023-04-22T20:23:21.253Z,18.63
2023-04-22T20:25:50.165Z,19.17
2023-04-22T20:28:17.411Z,17.97
2023-04-22T20:30:44.453Z,17.67
2023-04-22T20:33:15.178Z,18.27
2023-04-22T20:35:44.230Z,18.03
2023-04-22T20:38:13.325Z,18.50
2023-04-22T20:40:41.132Z,17.37
2023-04-22T20:43:08.058Z,15.40
2023-04-22T20:45:35.132Z,16.33
2023-04-22T20:48:02.043Z,14.83
2023-04-22T20:50:33.448Z,16.07
2023-04-22T20:53:01.423Z,16.10
2023-04-22T20:55:28.351Z,16.53
2023-04-22T20:57:55.301Z,17.30
2023-04-22T21:00:22.380Z,16.67
2023-04-22T21:02:50.617Z,16.27
2023-04-22T21:05:17.982Z,14.90
2023-04-22T21:07:47.042Z,14.83
2023-04-22T21:10:14.433Z,14.33
2023-04-22T21:12:41.378Z,14.57
2023-04-22T21:15:09.232Z,14.10
2023-04-22T21:17:40.240Z,14.33
2023-04-22T21:20:09.383Z,14.30
2023-04-22T21:22:37.504Z,14.43
2023-04-22T21:25:04.975Z,13.23
2023-04-22T21:27:32.020Z,12.20
2023-04-22T21:29:59.069Z,11.50
2023-04-22T21:32:26.710Z,12.83
2023-04-22T21:34:53.461Z,11.27
2023-04-22T21:37:20.249Z,10.10
2023-04-22T21:39:47.069Z,9.70
2023-04-22T21:42:13.812Z,8.17
2023-04-22T21:44:40.693Z,9.33
2023-04-22T21:47:07.615Z,9.63
2023-04-22T21:49:34.371Z,8.53
2023-04-22T21:52:01.258Z,8.53
2023-04-22T21:54:28.083Z,8.77
2023-04-22T21:56:56.234Z,8.67
2023-04-22T21:59:24.723Z,9.00
2023-04-22T22:01:52.001Z,9.33
2023-04-22T22:04:18.958Z,8.00
2023-04-22T22:06:45.904Z,9.97
2023-04-22T22:09:13.775Z,10.33
2023-04-22T22:11:40.703Z,10.03
2023-04-22T22:14:07.510Z,9.67
2023-04-22T22:16:35.035Z,10.87
2023-04-22T22:19:04.702Z,8.93
2023-04-22T22:21:33.319Z,9.57
2023-04-22T22:24:00.202Z,10.17
2023-04-22T22:26:28.025Z,11.23
2023-04-22T22:28:55.286Z,9.80
2023-04-22T22:31:22.168Z,10.90
2023-04-22T22:33:49.128Z,12.83
2023-04-22T22:36:16.298Z,12.07
2023-04-22T22:38:43.268Z,12.17
2023-04-22T22:41:10.307Z,13.70
2023-04-22T22:43:37.353Z,13.23
2023-04-22T22:46:04.258Z,14.20
2023-04-22T22:48:31.300Z,15.97
2023-04-22T22:50:58.161Z,14.47
2023-04-22T22:53:24.879Z,15.40
2023-04-22T22:55:51.690Z,15.10
2023-04-22T22:58:18.648Z,15.73
2023-04-22T23:00:45.531Z,18.10
2023-04-22T23:03:12.751Z,14.40
2023-04-22T23:05:39.652Z,14.90
2023-04-22T23:08:06.880Z,15.27
2023-04-22T23:10:33.869Z,15.77
2023-04-22T23:13:00.592Z,15.57
2023-04-22T23:15:27.309Z,16.30
2023-04-22T23:17:54.040Z,16.80
2023-04-22T23:20:22.328Z,16.60
2023-04-22T23:22:50.706Z,17.10
2023-04-22T23:25:17.825Z,16.97
2023-04-22T23:27:45.266Z,17.23
2023-04-22T23:30:12.501Z,17.23
2023-04-22T23:32:43.424Z,18.07
2023-04-22T23:35:14.071Z,16.57
2023-04-22T23:37:45.429Z,17.50
2023-04-22T23:40:13.519Z,19.67
2023-04-22T23:42:40.422Z,18.10
2023-04-22T23:45:09.648Z,21.30
2023-04-22T23:47:37.095Z,18.63
2023-04-22T23:50:04.882Z,18.80
2023-04-22T23:52:31.746Z,21.07
2023-04-22T23:54:58.771Z,21.30
2023-04-22T23:57:25.889Z,22.77
2023-04-22T23:59:52.875Z,21.50
